Pocahontas, TN (38061)

4:11 AM CDT on September 03, 2015 (GMT -0500)
Second Eden | | Change Station
CLOSE
Current Station
Personal Weather Station
Location: Middleton, TN
Elevation: 564 ft
Nearby Weather Stations

Elev 564 ft 35.03 °N, 88.96 °W | Updated 10 seconds ago

Mostly Cloudy
Mostly Cloudy
70.3 °F
Feels Like 70.3 °F
N
0.0
Wind Variable Wind from West
Gusts 0.0 mph

Today
High -- | Low -- °F
--% Chance of Precip.
Yesterday
High -- | Low -- °F
Precip. -- in
6:29 AM 7:19 PM
Waning Gibbous, 72% visible
Pressure 30.00 in
Visibility 0.2 miles
Clouds Overcast 200 ft
Dew Point 70 °F
Humidity 98%
Rainfall 0.00 in
Snow Depth Not available.
UV 0.0 out of 12
Pollen 9.30 out of 12
Air Quality Not available.
Flu Activity Not available.
METAR KCRX 030855Z AUTO 00000KT M1/4SM FG OVC002 20/19 A3000 RMK AO2
Pressure 30.00 in
Visibility 0.2 miles
Clouds Overcast 200 ft
Dew Point 70 °F
Humidity 98%
Rainfall 0.00 in
Snow Depth Not available.
UV 0.0 out of 12
Pollen 9.30 out of 12
Air Quality Not available.
Flu Activity Not available.
METAR KCRX 030855Z AUTO 00000KT M1/4SM FG OVC002 20/19 A3000 RMK AO2
Nowcast | as of 3:25 am CDT on September 3, 2015

Patchy dense fog will be possible early this morning for areas along and east of the Mississippi River. Visibilities at times could drop to a quarter of a mile or less. Travelers should slow their speed...use their low beam headlights...and allow extra time in reaching their destinations this morning.

×

10-Day Weather Forecast

×

Almanac

Astronomy

Sep. 03, 2015 Rise Set
Actual Time
Civil Twilight
Nautical Twilight
Astronomical Twilight
Moon
Length of Visible Light
Length of Day
Tomorrow will be .
, % of the Moon is Illuminated

Today's Extremes

State Highs State Lows

Community

WunderPhotos

Upload Photos

1,851,922 photos uploaded!

WunderBlogs® & News

Nearby

Air Quality

  Air Quality AQ Index Pollutant
Not available.

Snow Depth

Station Depth Elevation

Earthquake Activity

City Distance Mag. Time & Date
Minimum magnitude displayed is 2.5.

Coastal Water Temperatures

Place Temperature

Stations

Nearby Weather Stations

Station Location Temp. Windchill Dew Point Humidity Wind Precip. Elev Updated Type